sensor_id;sensor_type;location;lat;lon;timestamp;pressure;altitude;pressure_sealevel;temperature;humidity
56894;BME280;43392;50.078;13.704;2023-03-14T00:00:59;95357.41;;;10.01;89.24
56894;BME280;43392;50.078;13.704;2023-03-14T00:03:28;95334.41;;;10.00;89.41
56894;BME280;43392;50.078;13.704;2023-03-14T00:05:54;95290.78;;;10.00;89.83
56894;BME280;43392;50.078;13.704;2023-03-14T00:08:21;95244.00;;;9.97;89.89
56894;BME280;43392;50.078;13.704;2023-03-14T00:10:50;95218.63;;;9.95;90.28
56894;BME280;43392;50.078;13.704;2023-03-14T00:13:16;95205.06;;;9.91;90.47
56894;BME280;43392;50.078;13.704;2023-03-14T00:15:43;95200.66;;;9.87;91.13
56894;BME280;43392;50.078;13.704;2023-03-14T00:18:11;95204.59;;;9.81;91.43
56894;BME280;43392;50.078;13.704;2023-03-14T00:20:37;95187.09;;;9.75;91.40
56894;BME280;43392;50.078;13.704;2023-03-14T00:23:04;95169.31;;;9.70;92.20
56894;BME280;43392;50.078;13.704;2023-03-14T00:25:30;95176.06;;;9.68;92.30
56894;BME280;43392;50.078;13.704;2023-03-14T00:27:57;95172.13;;;9.65;92.54
56894;BME280;43392;50.078;13.704;2023-03-14T00:30:23;95171.34;;;9.65;92.84
56894;BME280;43392;50.078;13.704;2023-03-14T00:32:50;95152.13;;;9.63;92.97
56894;BME280;43392;50.078;13.704;2023-03-14T00:35:18;95147.09;;;9.61;93.19
56894;BME280;43392;50.078;13.704;2023-03-14T00:37:44;95127.13;;;9.59;93.21
56894;BME280;43392;50.078;13.704;2023-03-14T00:40:11;95124.72;;;9.57;93.15
56894;BME280;43392;50.078;13.704;2023-03-14T00:42:38;95112.75;;;9.55;93.47
56894;BME280;43392;50.078;13.704;2023-03-14T00:45:05;95100.50;;;9.54;93.69
56894;BME280;43392;50.078;13.704;2023-03-14T00:47:34;95091.22;;;9.51;93.89
56894;BME280;43392;50.078;13.704;2023-03-14T00:50:00;95103.78;;;9.51;93.88
56894;BME280;43392;50.078;13.704;2023-03-14T00:52:28;95112.91;;;9.50;94.38
56894;BME280;43392;50.078;13.704;2023-03-14T00:54:55;95114.03;;;9.49;94.77
56894;BME280;43392;50.078;13.704;2023-03-14T00:57:22;95101.44;;;9.49;94.70
56894;BME280;43392;50.078;13.704;2023-03-14T00:59:48;95077.03;;;9.51;94.72
56894;BME280;43392;50.078;13.704;2023-03-14T01:02:16;95070.91;;;9.50;94.64
56894;BME280;43392;50.078;13.704;2023-03-14T01:04:43;95067.44;;;9.50;94.40
56894;BME280;43392;50.078;13.704;2023-03-14T01:07:10;95074.69;;;9.49;94.29
56894;BME280;43392;50.078;13.704;2023-03-14T01:09:38;95070.09;;;9.50;93.88
56894;BME280;43392;50.078;13.704;2023-03-14T01:12:04;95057.53;;;9.50;93.66
56894;BME280;43392;50.078;13.704;2023-03-14T01:14:31;95048.88;;;9.53;93.39
56894;BME280;43392;50.078;13.704;2023-03-14T01:16:58;95041.31;;;9.55;93.29
56894;BME280;43392;50.078;13.704;2023-03-14T01:19:26;95051.69;;;9.57;93.24
56894;BME280;43392;50.078;13.704;2023-03-14T01:21:52;95038.97;;;9.54;93.42
56894;BME280;43392;50.078;13.704;2023-03-14T01:24:19;95063.97;;;9.58;93.22
56894;BME280;43392;50.078;13.704;2023-03-14T01:26:47;95059.41;;;9.58;93.18
56894;BME280;43392;50.078;13.704;2023-03-14T01:29:14;95041.47;;;9.59;93.22
56894;BME280;43392;50.078;13.704;2023-03-14T01:31:40;95039.09;;;9.57;93.33
56894;BME280;43392;50.078;13.704;2023-03-14T01:34:07;95034.22;;;9.59;93.23
56894;BME280;43392;50.078;13.704;2023-03-14T01:36:33;95046.50;;;9.60;93.29
56894;BME280;43392;50.078;13.704;2023-03-14T01:39:00;95058.00;;;9.61;93.23
56894;BME280;43392;50.078;13.704;2023-03-14T01:41:27;95071.22;;;9.57;93.17
56894;BME280;43392;50.078;13.704;2023-03-14T01:43:55;95071.53;;;9.56;93.27
56894;BME280;43392;50.078;13.704;2023-03-14T01:46:34;95061.94;;;9.55;93.28
56894;BME280;43392;50.078;13.704;2023-03-14T01:49:07;95070.59;;;9.52;93.44
56894;BME280;43392;50.078;13.704;2023-03-14T01:51:39;95069.19;;;9.54;93.54
56894;BME280;43392;50.078;13.704;2023-03-14T01:54:12;95079.09;;;9.54;93.54
56894;BME280;43392;50.078;13.704;2023-03-14T01:56:41;95072.16;;;9.53;93.56
56894;BME280;43392;50.078;13.704;2023-03-14T01:59:12;95075.63;;;9.53;93.79
56894;BME280;43392;50.078;13.704;2023-03-14T02:01:41;95073.28;;;9.52;93.79
56894;BME280;43392;50.078;13.704;2023-03-14T02:04:09;95064.75;;;9.50;94.01
56894;BME280;43392;50.078;13.704;2023-03-14T02:06:44;95067.91;;;9.43;94.61
56894;BME280;43392;50.078;13.704;2023-03-14T02:09:13;95068.09;;;9.47;94.72
56894;BME280;43392;50.078;13.704;2023-03-14T02:11:39;95078.59;;;9.43;95.01
56894;BME280;43392;50.078;13.704;2023-03-14T02:14:07;95083.63;;;9.45;95.37
56894;BME280;43392;50.078;13.704;2023-03-14T02:16:37;95093.25;;;9.46;95.34
56894;BME280;43392;50.078;13.704;2023-03-14T02:19:05;95079.53;;;9.47;95.27
56894;BME280;43392;50.078;13.704;2023-03-14T02:21:40;95065.88;;;9.49;95.28
56894;BME280;43392;50.078;13.704;2023-03-14T02:24:17;95054.06;;;9.50;95.19
56894;BME280;43392;50.078;13.704;2023-03-14T02:29:45;95063.66;;;9.51;94.93
56894;BME280;43392;50.078;13.704;2023-03-14T02:32:14;95058.31;;;9.51;94.75
56894;BME280;43392;50.078;13.704;2023-03-14T02:34:44;95052.97;;;9.51;94.61
56894;BME280;43392;50.078;13.704;2023-03-14T02:37:12;95054.06;;;9.50;94.38
56894;BME280;43392;50.078;13.704;2023-03-14T02:39:43;95052.50;;;9.49;94.47
56894;BME280;43392;50.078;13.704;2023-03-14T02:42:11;95053.59;;;9.48;94.27
56894;BME280;43392;50.078;13.704;2023-03-14T02:44:50;95032.19;;;9.48;94.13
56894;BME280;43392;50.078;13.704;2023-03-14T02:47:19;95030.13;;;9.45;94.27
56894;BME280;43392;50.078;13.704;2023-03-14T02:49:47;95016.28;;;9.43;94.25
56894;BME280;43392;50.078;13.704;2023-03-14T02:52:13;95000.56;;;9.41;94.48
56894;BME280;43392;50.078;13.704;2023-03-14T02:54:40;95002.59;;;9.35;94.55
56894;BME280;43392;50.078;13.704;2023-03-14T02:57:07;95015.69;;;9.37;94.30
56894;BME280;43392;50.078;13.704;2023-03-14T02:59:33;95007.66;;;9.37;94.47
56894;BME280;43392;50.078;13.704;2023-03-14T03:02:01;94999.94;;;9.35;94.56
56894;BME280;43392;50.078;13.704;2023-03-14T03:04:28;94987.66;;;9.34;94.37
56894;BME280;43392;50.078;13.704;2023-03-14T03:06:54;94990.81;;;9.37;94.17
56894;BME280;43392;50.078;13.704;2023-03-14T03:09:21;94987.50;;;9.40;93.79
56894;BME280;43392;50.078;13.704;2023-03-14T03:11:48;94984.50;;;9.41;93.63
56894;BME280;43392;50.078;13.704;2023-03-14T03:14:14;94985.78;;;9.44;93.33
56894;BME280;43392;50.078;13.704;2023-03-14T03:16:41;94990.50;;;9.47;93.25
56894;BME280;43392;50.078;13.704;2023-03-14T03:19:09;94997.09;;;9.49;92.90
56894;BME280;43392;50.078;13.704;2023-03-14T03:21:35;95006.38;;;9.52;92.74
56894;BME280;43392;50.078;13.704;2023-03-14T03:24:02;95009.06;;;9.52;92.78
56894;BME280;43392;50.078;13.704;2023-03-14T03:26:29;94998.38;;;9.52;92.41
56894;BME280;43392;50.078;13.704;2023-03-14T03:28:55;95001.03;;;9.52;92.30
56894;BME280;43392;50.078;13.704;2023-03-14T03:31:22;95009.81;;;9.52;92.23
56894;BME280;43392;50.078;13.704;2023-03-14T03:33:48;95007.47;;;9.51;92.04
56894;BME280;43392;50.078;13.704;2023-03-14T03:36:20;95009.69;;;9.49;92.07
56894;BME280;43392;50.078;13.704;2023-03-14T03:38:47;95015.66;;;9.46;92.09
56894;BME280;43392;50.078;13.704;2023-03-14T03:41:14;95013.31;;;9.44;91.90
56894;BME280;43392;50.078;13.704;2023-03-14T03:43:40;95024.31;;;9.43;91.95
56894;BME280;43392;50.078;13.704;2023-03-14T03:46:08;95035.66;;;9.40;91.97
56894;BME280;43392;50.078;13.704;2023-03-14T03:48:35;95027.13;;;9.38;91.89
56894;BME280;43392;50.078;13.704;2023-03-14T03:51:01;95030.47;;;9.34;92.07
56894;BME280;43392;50.078;13.704;2023-03-14T03:53:30;95029.81;;;9.29;92.02
56894;BME280;43392;50.078;13.704;2023-03-14T03:55:56;95021.00;;;9.28;92.19
56894;BME280;43392;50.078;13.704;2023-03-14T03:58:23;95024.31;;;9.25;92.29
56894;BME280;43392;50.078;13.704;2023-03-14T04:00:49;95028.72;;;9.21;92.16
56894;BME280;43392;50.078;13.704;2023-03-14T04:03:16;95045.56;;;9.22;92.37
56894;BME280;43392;50.078;13.704;2023-03-14T04:05:42;95039.56;;;9.16;92.17
56894;BME280;43392;50.078;13.704;2023-03-14T04:08:09;95042.22;;;9.16;92.35
56894;BME280;43392;50.078;13.704;2023-03-14T04:10:37;95036.41;;;9.14;92.39
56894;BME280;43392;50.078;13.704;2023-03-14T04:13:04;95023.03;;;9.14;92.44
56894;BME280;43392;50.078;13.704;2023-03-14T04:15:30;95034.81;;;9.13;92.25
56894;BME280;43392;50.078;13.704;2023-03-14T04:17:57;95019.88;;;9.04;92.31
56894;BME280;43392;50.078;13.704;2023-03-14T04:20:24;95039.09;;;9.14;92.04
56894;BME280;43392;50.078;13.704;2023-03-14T04:22:50;95047.91;;;9.15;92.22
56894;BME280;43392;50.078;13.704;2023-03-14T04:25:17;95046.03;;;9.15;92.14
56894;BME280;43392;50.078;13.704;2023-03-14T04:27:46;95039.09;;;9.14;92.07
56894;BME280;43392;50.078;13.704;2023-03-14T04:30:13;95047.44;;;9.13;92.06
56894;BME280;43392;50.078;13.704;2023-03-14T04:32:40;95046.31;;;9.14;92.07
56894;BME280;43392;50.078;13.704;2023-03-14T04:35:07;95044.75;;;9.13;92.19
56894;BME280;43392;50.078;13.704;2023-03-14T04:37:33;95047.44;;;9.13;92.05
56894;BME280;43392;50.078;13.704;2023-03-14T04:40:00;95045.84;;;9.12;92.13
56894;BME280;43392;50.078;13.704;2023-03-14T04:42:29;95035.47;;;9.10;92.09
56894;BME280;43392;50.078;13.704;2023-03-14T04:44:57;95020.53;;;9.09;92.32
56894;BME280;43392;50.078;13.704;2023-03-14T04:47:23;95033.41;;;9.07;92.31
56894;BME280;43392;50.078;13.704;2023-03-14T04:49:50;95017.19;;;9.04;92.22
56894;BME280;43392;50.078;13.704;2023-03-14T04:52:17;95009.97;;;9.04;92.31
56894;BME280;43392;50.078;13.704;2023-03-14T04:54:43;95012.66;;;9.04;92.33
56894;BME280;43392;50.078;13.704;2023-03-14T04:57:10;95000.41;;;9.03;92.08
56894;BME280;43392;50.078;13.704;2023-03-14T04:59:36;95003.38;;;9.02;91.98
56894;BME280;43392;50.078;13.704;2023-03-14T05:02:04;95002.28;;;9.03;91.97
56894;BME280;43392;50.078;13.704;2023-03-14T05:04:31;94995.34;;;9.02;91.73
56894;BME280;43392;50.078;13.704;2023-03-14T05:06:59;94993.00;;;9.00;91.74
56894;BME280;43392;50.078;13.704;2023-03-14T05:09:25;94988.72;;;8.99;91.69
56894;BME280;43392;50.078;13.704;2023-03-14T05:11:52;94985.25;;;8.99;91.48
56894;BME280;43392;50.078;13.704;2023-03-14T05:14:18;94984.00;;;8.96;91.33
56894;BME280;43392;50.078;13.704;2023-03-14T05:16:45;94991.25;;;8.96;91.27
56894;BME280;43392;50.078;13.704;2023-03-14T05:19:13;94995.63;;;8.92;90.97
56894;BME280;43392;50.078;13.704;2023-03-14T05:21:40;94984.66;;;8.93;90.80
56894;BME280;43392;50.078;13.704;2023-03-14T05:24:06;94987.63;;;8.92;90.47
56894;BME280;43392;50.078;13.704;2023-03-14T05:26:33;94988.25;;;8.89;90.81
56894;BME280;43392;50.078;13.704;2023-03-14T05:29:00;94981.00;;;8.89;90.73
56894;BME280;43392;50.078;13.704;2023-03-14T05:31:26;94982.91;;;8.89;90.46
56894;BME280;43392;50.078;13.704;2023-03-14T05:33:53;94982.13;;;8.88;90.63
56894;BME280;43392;50.078;13.704;2023-03-14T05:36:21;94966.88;;;8.89;90.50
56894;BME280;43392;50.078;13.704;2023-03-14T05:38:47;94978.34;;;8.89;90.44
56894;BME280;43392;50.078;13.704;2023-03-14T05:41:14;94983.69;;;8.89;90.49
56894;BME280;43392;50.078;13.704;2023-03-14T05:43:40;94977.56;;;8.89;90.21
56894;BME280;43392;50.078;13.704;2023-03-14T05:46:07;94971.44;;;8.88;90.41
56894;BME280;43392;50.078;13.704;2023-03-14T05:48:33;94954.59;;;8.88;90.40
56894;BME280;43392;50.078;13.704;2023-03-14T05:51:00;94951.94;;;8.88;90.29
56894;BME280;43392;50.078;13.704;2023-03-14T05:53:28;94949.09;;;8.84;89.97
56894;BME280;43392;50.078;13.704;2023-03-14T05:55:56;94953.81;;;8.87;90.10
56894;BME280;43392;50.078;13.704;2023-03-14T05:58:23;94966.09;;;8.88;90.15
56894;BME280;43392;50.078;13.704;2023-03-14T06:00:50;94951.59;;;8.89;90.12
56894;BME280;43392;50.078;13.704;2023-03-14T06:03:17;94966.09;;;8.88;89.71
56894;BME280;43392;50.078;13.704;2023-03-14T06:05:43;94974.72;;;8.94;89.66
56894;BME280;43392;50.078;13.704;2023-03-14T06:08:10;94969.38;;;8.94;89.49
56894;BME280;43392;50.078;13.704;2023-03-14T06:10:38;94977.91;;;8.96;89.40
56894;BME280;43392;50.078;13.704;2023-03-14T06:13:04;94997.88;;;8.98;89.55
56894;BME280;43392;50.078;13.704;2023-03-14T06:15:31;95009.31;;;8.99;89.63
56894;BME280;43392;50.078;13.704;2023-03-14T06:17:58;95003.69;;;9.00;89.34
56894;BME280;43392;50.078;13.704;2023-03-14T06:20:25;95007.16;;;9.01;89.48
56894;BME280;43392;50.078;13.704;2023-03-14T06:22:52;94998.00;;;9.02;89.38
56894;BME280;43392;50.078;13.704;2023-03-14T06:25:18;94991.25;;;9.04;89.67
56894;BME280;43392;50.078;13.704;2023-03-14T06:27:47;94991.09;;;9.09;89.66
56894;BME280;43392;50.078;13.704;2023-03-14T06:30:14;94993.00;;;9.17;89.53
56894;BME280;43392;50.078;13.704;2023-03-14T06:32:40;94987.97;;;9.24;89.25
56894;BME280;43392;50.078;13.704;2023-03-14T06:35:07;94990.97;;;9.31;88.75
56894;BME280;43392;50.078;13.704;2023-03-14T06:37:34;94993.03;;;9.34;88.73
56894;BME280;43392;50.078;13.704;2023-03-14T06:40:01;94986.56;;;9.35;88.68
56894;BME280;43392;50.078;13.704;2023-03-14T06:42:28;94994.41;;;9.41;88.39
56894;BME280;43392;50.078;13.704;2023-03-14T06:44:56;94992.38;;;9.46;88.23
56894;BME280;43392;50.078;13.704;2023-03-14T06:47:22;94990.63;;;9.50;88.34
56894;BME280;43392;50.078;13.704;2023-03-14T06:49:49;94994.56;;;9.53;88.08
56894;BME280;43392;50.078;13.704;2023-03-14T06:52:15;94997.88;;;9.58;90.36
56894;BME280;43392;50.078;13.704;2023-03-14T06:54:42;94995.91;;;10.19;89.25
56894;BME280;43392;50.078;13.704;2023-03-14T06:57:08;94988.44;;;10.33;86.05
56894;BME280;43392;50.078;13.704;2023-03-14T06:59:35;94997.28;;;10.25;85.42
56894;BME280;43392;50.078;13.704;2023-03-14T07:02:03;94995.41;;;10.08;85.63
56894;BME280;43392;50.078;13.704;2023-03-14T07:04:29;94985.69;;;9.95;85.64
56894;BME280;43392;50.078;13.704;2023-03-14T07:06:56;94983.34;;;9.85;86.17
56894;BME280;43392;50.078;13.704;2023-03-14T07:09:23;94983.34;;;9.76;86.31
56894;BME280;43392;50.078;13.704;2023-03-14T07:11:49;94994.72;;;9.73;86.48
56894;BME280;43392;50.078;13.704;2023-03-14T07:14:16;94987.78;;;9.72;86.77
56894;BME280;43392;50.078;13.704;2023-03-14T07:16:42;95000.06;;;9.73;86.60
56894;BME280;43392;50.078;13.704;2023-03-14T07:19:11;95005.72;;;9.72;86.66
56894;BME280;43392;50.078;13.704;2023-03-14T07:21:38;95009.19;;;9.72;86.69
56894;BME280;43392;50.078;13.704;2023-03-14T07:24:04;95015.00;;;9.74;86.52
56894;BME280;43392;50.078;13.704;2023-03-14T07:26:31;95022.75;;;9.76;86.71
56894;BME280;43392;50.078;13.704;2023-03-14T07:28:58;95019.91;;;9.81;86.56
56894;BME280;43392;50.078;13.704;2023-03-14T07:31:24;95024.94;;;9.82;86.37
56894;BME280;43392;50.078;13.704;2023-03-14T07:33:51;95015.47;;;9.85;86.51
56894;BME280;43392;50.078;13.704;2023-03-14T07:36:19;95029.78;;;9.89;86.21
56894;BME280;43392;50.078;13.704;2023-03-14T07:38:45;95024.91;;;9.91;86.10
56894;BME280;43392;50.078;13.704;2023-03-14T07:41:12;95030.75;;;9.93;86.06
56894;BME280;43392;50.078;13.704;2023-03-14T07:43:39;95028.84;;;9.93;86.12
56894;BME280;43392;50.078;13.704;2023-03-14T07:46:06;95028.22;;;9.96;86.12
56894;BME280;43392;50.078;13.704;2023-03-14T07:48:33;95034.34;;;9.97;85.99
56894;BME280;43392;50.078;13.704;2023-03-14T07:51:00;95037.03;;;9.97;85.79
56894;BME280;43392;50.078;13.704;2023-03-14T07:53:28;95034.03;;;9.98;86.20
56894;BME280;43392;50.078;13.704;2023-03-14T07:55:54;95031.81;;;10.00;85.66
56894;BME280;43392;50.078;13.704;2023-03-14T07:58:21;95036.53;;;10.03;85.20
56894;BME280;43392;50.078;13.704;2023-03-14T08:00:48;95036.25;;;10.05;85.22
56894;BME280;43392;50.078;13.704;2023-03-14T08:03:15;95030.22;;;10.08;85.13
56894;BME280;43392;50.078;13.704;2023-03-14T08:05:41;95024.75;;;10.05;84.97
56894;BME280;43392;50.078;13.704;2023-03-14T08:08:08;95025.53;;;10.14;84.98
56894;BME280;43392;50.078;13.704;2023-03-14T08:10:36;95034.50;;;10.18;84.37
56894;BME280;43392;50.078;13.704;2023-03-14T08:13:03;95036.88;;;10.19;84.20
56894;BME280;43392;50.078;13.704;2023-03-14T08:15:30;95029.47;;;10.16;84.25
56894;BME280;43392;50.078;13.704;2023-03-14T08:17:57;95022.84;;;10.14;84.03
56894;BME280;43392;50.078;13.704;2023-03-14T08:20:26;95027.41;;;10.13;84.41
56894;BME280;43392;50.078;13.704;2023-03-14T08:22:55;95030.88;;;10.14;84.34
56894;BME280;43392;50.078;13.704;2023-03-14T08:25:22;95030.56;;;10.15;84.25
56894;BME280;43392;50.078;13.704;2023-03-14T08:27:50;95024.44;;;10.15;84.02
56894;BME280;43392;50.078;13.704;2023-03-14T08:30:17;95033.22;;;10.15;83.93
56894;BME280;43392;50.078;13.704;2023-03-14T08:32:44;95029.78;;;10.15;83.54
56894;BME280;43392;50.078;13.704;2023-03-14T08:35:11;95018.75;;;10.16;83.13
56894;BME280;43392;50.078;13.704;2023-03-14T08:37:38;95028.84;;;10.19;83.16
56894;BME280;43392;50.078;13.704;2023-03-14T08:40:06;95030.22;;;10.25;82.55
56894;BME280;43392;50.078;13.704;2023-03-14T08:42:34;95034.31;;;10.31;81.56
56894;BME280;43392;50.078;13.704;2023-03-14T08:45:02;95039.16;;;10.38;81.08
56894;BME280;43392;50.078;13.704;2023-03-14T08:47:29;95030.16;;;10.42;80.68
56894;BME280;43392;50.078;13.704;2023-03-14T08:49:55;95034.44;;;10.43;80.50
56894;BME280;43392;50.078;13.704;2023-03-14T08:52:22;95043.25;;;10.44;79.98
56894;BME280;43392;50.078;13.704;2023-03-14T08:54:49;95044.47;;;10.46;80.05
56894;BME280;43392;50.078;13.704;2023-03-14T08:57:15;95043.22;;;10.52;80.24
56894;BME280;43392;50.078;13.704;2023-03-14T08:59:42;95038.13;;;10.59;79.12
56894;BME280;43392;50.078;13.704;2023-03-14T09:02:11;95046.78;;;10.65;78.89
56894;BME280;43392;50.078;13.704;2023-03-14T09:04:37;95042.69;;;10.68;78.62
56894;BME280;43392;50.078;13.704;2023-03-14T09:07:04;95041.38;;;10.74;78.92
56894;BME280;43392;50.078;13.704;2023-03-14T09:09:30;95039.94;;;10.76;77.93
56894;BME280;43392;50.078;13.704;2023-03-14T09:11:57;95038.53;;;10.79;78.24
56894;BME280;43392;50.078;13.704;2023-03-14T09:14:24;95041.66;;;10.81;77.83
56894;BME280;43392;50.078;13.704;2023-03-14T09:16:50;95040.22;;;10.83;77.79
56894;BME280;43392;50.078;13.704;2023-03-14T09:19:18;95039.44;;;10.83;77.72
56894;BME280;43392;50.078;13.704;2023-03-14T09:21:45;95050.84;;;10.80;77.94
56894;BME280;43392;50.078;13.704;2023-03-14T09:24:11;95043.88;;;10.79;77.81
56894;BME280;43392;50.078;13.704;2023-03-14T09:26:38;95042.63;;;10.76;77.00
56894;BME280;43392;50.078;13.704;2023-03-14T09:29:04;95039.66;;;10.69;77.03
56894;BME280;43392;50.078;13.704;2023-03-14T09:31:31;95025.47;;;10.68;76.67
56894;BME280;43392;50.078;13.704;2023-03-14T09:33:57;95037.59;;;10.75;76.62
56894;BME280;43392;50.078;13.704;2023-03-14T09:36:26;95035.84;;;10.79;76.18
56894;BME280;43392;50.078;13.704;2023-03-14T09:38:52;95039.16;;;10.76;76.43
56894;BME280;43392;50.078;13.704;2023-03-14T09:41:22;95032.69;;;10.77;76.85
56894;BME280;43392;50.078;13.704;2023-03-14T09:43:58;95049.88;;;10.76;77.18
56894;BME280;43392;50.078;13.704;2023-03-14T09:46:27;95039.16;;;10.76;76.51
56894;BME280;43392;50.078;13.704;2023-03-14T09:48:55;95054.31;;;10.72;76.74
56894;BME280;43392;50.078;13.704;2023-03-14T09:51:22;95040.47;;;10.70;76.75
56894;BME280;43392;50.078;13.704;2023-03-14T09:53:51;95034.81;;;10.62;76.06
56894;BME280;43392;50.078;13.704;2023-03-14T09:56:19;95049.47;;;10.65;76.44
56894;BME280;43392;50.078;13.704;2023-03-14T09:58:50;95040.66;;;10.64;76.39
56894;BME280;43392;50.078;13.704;2023-03-14T10:01:22;95041.09;;;10.66;76.21
56894;BME280;43392;50.078;13.704;2023-03-14T10:03:50;95041.91;;;10.67;75.90
56894;BME280;43392;50.078;13.704;2023-03-14T10:06:22;95037.31;;;10.68;75.46
56894;BME280;43392;50.078;13.704;2023-03-14T10:08:51;95039.22;;;10.67;75.46
56894;BME280;43392;50.078;13.704;2023-03-14T10:11:19;95029.75;;;10.70;75.40
56894;BME280;43392;50.078;13.704;2023-03-14T10:13:49;95032.41;;;10.70;74.97
56894;BME280;43392;50.078;13.704;2023-03-14T10:16:15;95035.09;;;10.70;75.01
56894;BME280;43392;50.078;13.704;2023-03-14T10:18:44;95034.94;;;10.66;75.08
56894;BME280;43392;50.078;13.704;2023-03-14T10:21:21;95041.75;;;10.63;75.13
56894;BME280;43392;50.078;13.704;2023-03-14T10:23:48;95038.59;;;10.61;75.36
56894;BME280;43392;50.078;13.704;2023-03-14T10:26:17;95040.50;;;10.61;74.75
56894;BME280;43392;50.078;13.704;2023-03-14T10:28:45;95035.47;;;10.59;74.62
56894;BME280;43392;50.078;13.704;2023-03-14T10:31:13;95041.91;;;10.58;74.80
56894;BME280;43392;50.078;13.704;2023-03-14T10:33:40;95041.44;;;10.56;74.75
56894;BME280;43392;50.078;13.704;2023-03-14T10:36:17;95030.44;;;10.58;74.87
56894;BME280;43392;50.078;13.704;2023-03-14T10:38:45;95032.13;;;10.62;74.70
56894;BME280;43392;50.078;13.704;2023-03-14T10:41:19;95037.16;;;10.64;74.77
56894;BME280;43392;50.078;13.704;2023-03-14T10:43:50;95037.44;;;10.71;74.75
56894;BME280;43392;50.078;13.704;2023-03-14T10:46:19;95038.06;;;10.77;74.10
56894;BME280;43392;50.078;13.704;2023-03-14T10:48:46;95030.63;;;10.82;74.17
56894;BME280;43392;50.078;13.704;2023-03-14T10:51:19;95039.13;;;10.84;73.68
56894;BME280;43392;50.078;13.704;2023-03-14T10:53:56;95032.00;;;10.88;73.53
56894;BME280;43392;50.078;13.704;2023-03-14T10:56:26;95031.03;;;10.93;72.56
56894;BME280;43392;50.078;13.704;2023-03-14T10:58:56;95039.34;;;11.00;72.89
56894;BME280;43392;50.078;13.704;2023-03-14T11:01:37;95034.78;;;11.00;72.34
56894;BME280;43392;50.078;13.704;2023-03-14T11:04:15;95048.53;;;10.99;72.66
56894;BME280;43392;50.078;13.704;2023-03-14T11:06:50;95043.47;;;10.97;72.73
56894;BME280;43392;50.078;13.704;2023-03-14T11:09:28;95041.09;;;11.04;72.66
56894;BME280;43392;50.078;13.704;2023-03-14T11:12:01;95045.09;;;11.19;72.38
56894;BME280;43392;50.078;13.704;2023-03-14T11:14:35;95051.97;;;11.28;72.35
56894;BME280;43392;50.078;13.704;2023-03-14T11:17:12;95045.94;;;11.31;71.46
56894;BME280;43392;50.078;13.704;2023-03-14T11:19:55;95034.75;;;11.29;71.09
56894;BME280;43392;50.078;13.704;2023-03-14T11:22:32;95036.00;;;11.32;71.66
56894;BME280;43392;50.078;13.704;2023-03-14T11:25:13;95035.22;;;11.31;71.29
56894;BME280;43392;50.078;13.704;2023-03-14T11:27:48;95038.09;;;11.26;71.23
56894;BME280;43392;50.078;13.704;2023-03-14T11:30:26;95045.56;;;11.21;70.50
56894;BME280;43392;50.078;13.704;2023-03-14T11:33:04;95042.41;;;11.19;70.90
56894;BME280;43392;50.078;13.704;2023-03-14T11:35:38;95040.19;;;11.21;70.74
56894;BME280;43392;50.078;13.704;2023-03-14T11:38:23;95033.69;;;11.22;70.76
56894;BME280;43392;50.078;13.704;2023-03-14T11:40:53;95041.28;;;11.20;70.51
56894;BME280;43392;50.078;13.704;2023-03-14T11:43:26;95040.97;;;11.21;70.98
56894;BME280;43392;50.078;13.704;2023-03-14T11:45:58;95040.66;;;11.23;71.13
56894;BME280;43392;50.078;13.704;2023-03-14T11:48:34;95034.94;;;11.24;71.31
56894;BME280;43392;50.078;13.704;2023-03-14T11:51:05;95029.59;;;11.24;69.81
56894;BME280;43392;50.078;13.704;2023-03-14T11:53:41;95025.00;;;11.25;69.39
56894;BME280;43392;50.078;13.704;2023-03-14T11:56:11;95025.16;;;11.28;69.82
56894;BME280;43392;50.078;13.704;2023-03-14T11:58:50;95020.81;;;11.36;69.88
56894;BME280;43392;50.078;13.704;2023-03-14T12:01:20;95017.28;;;11.44;69.46
56894;BME280;43392;50.078;13.704;2023-03-14T12:03:56;95009.19;;;11.53;68.94
56894;BME280;43392;50.078;13.704;2023-03-14T12:06:29;95011.00;;;11.61;68.82
56894;BME280;43392;50.078;13.704;2023-03-14T12:08:58;95005.91;;;11.68;68.33
56894;BME280;43392;50.078;13.704;2023-03-14T12:11:34;95005.19;;;11.79;67.99
56894;BME280;43392;50.078;13.704;2023-03-14T12:14:17;94999.38;;;11.89;68.09
56894;BME280;43392;50.078;13.704;2023-03-14T12:16:46;94998.53;;;11.97;68.25
56894;BME280;43392;50.078;13.704;2023-03-14T12:19:27;95000.59;;;12.13;67.76
56894;BME280;43392;50.078;13.704;2023-03-14T12:21:57;94995.13;;;12.21;67.68
56894;BME280;43392;50.078;13.704;2023-03-14T12:24:26;94985.84;;;12.31;67.73
56894;BME280;43392;50.078;13.704;2023-03-14T12:26:56;94979.94;;;12.37;66.85
56894;BME280;43392;50.078;13.704;2023-03-14T12:29:24;94972.75;;;12.41;67.09
56894;BME280;43392;50.078;13.704;2023-03-14T12:32:22;94979.72;;;12.42;66.74
56894;BME280;43392;50.078;13.704;2023-03-14T12:34:49;94980.25;;;12.48;66.20
56894;BME280;43392;50.078;13.704;2023-03-14T12:37:22;94966.59;;;12.53;66.92
56894;BME280;43392;50.078;13.704;2023-03-14T12:39:59;94969.72;;;12.55;67.27
56894;BME280;43392;50.078;13.704;2023-03-14T12:42:45;94957.88;;;12.56;67.13
56894;BME280;43392;50.078;13.704;2023-03-14T12:45:27;94950.16;;;12.54;67.67
56894;BME280;43392;50.078;13.704;2023-03-14T12:48:10;94953.59;;;12.55;67.38
56894;BME280;43392;50.078;13.704;2023-03-14T12:50:42;94965.50;;;12.54;67.08
56894;BME280;43392;50.078;13.704;2023-03-14T12:53:52;94967.50;;;12.57;67.32
56894;BME280;43392;50.078;13.704;2023-03-14T12:56:25;94973.34;;;12.59;67.59
56894;BME280;43392;50.078;13.704;2023-03-14T12:59:05;94963.47;;;12.51;67.11
56894;BME280;43392;50.078;13.704;2023-03-14T13:01:47;94968.50;;;12.40;67.62
56894;BME280;43392;50.078;13.704;2023-03-14T13:04:27;94967.81;;;12.43;68.16
56894;BME280;43392;50.078;13.704;2023-03-14T13:06:55;94959.19;;;12.38;67.45